createdAt,value
2023-04-10T00:00:13.435Z,95633.00
2023-04-10T00:02:41.402Z,95628.53
2023-04-10T00:05:09.746Z,95622.66
2023-04-10T00:07:37.427Z,95623.47
2023-04-10T00:10:05.335Z,95624.28
2023-04-10T00:12:32.912Z,95624.28
2023-04-10T00:15:00.917Z,95623.25
2023-04-10T00:17:28.163Z,95617.19
2023-04-10T00:19:56.308Z,95623.47
2023-04-10T00:22:24.152Z,95617.19
2023-04-10T00:24:51.793Z,95610.28
2023-04-10T00:27:19.634Z,95612.94
2023-04-10T00:29:47.320Z,95607.66
2023-04-10T00:32:14.855Z,95610.09
2023-04-10T00:34:42.951Z,95601.38
2023-04-10T00:37:10.720Z,95607.44
2023-04-10T00:39:38.531Z,95605.03
2023-04-10T00:42:09.427Z,95602.38
2023-04-10T00:44:38.043Z,95605.22
2023-04-10T00:47:06.438Z,95602.38
2023-04-10T00:49:34.993Z,95606.03
2023-04-10T00:52:02.512Z,95601.59
2023-04-10T00:54:31.550Z,95603.38
2023-04-10T00:56:59.719Z,95605.03
2023-04-10T00:59:26.904Z,95601.59
2023-04-10T01:01:55.866Z,95604.22
2023-04-10T01:04:26.778Z,95596.31
2023-04-10T01:07:27.650Z,95605.22
2023-04-10T01:10:05.465Z,95599.13
2023-04-10T01:13:11.842Z,95604.78
2023-04-10T01:16:05.976Z,95595.25
2023-04-10T01:19:01.536Z,95602.53
2023-04-10T01:21:31.448Z,95595.63
2023-04-10T01:24:55.223Z,95598.25
2023-04-10T01:27:59.204Z,95596.66
2023-04-10T01:30:27.398Z,95601.06
2023-04-10T01:32:59.717Z,95602.91
2023-04-10T01:35:30.032Z,95607.19
2023-04-10T01:38:01.449Z,95603.53
2023-04-10T01:40:31.873Z,95592.19
2023-04-10T01:43:02.896Z,95602.72
2023-04-10T01:45:43.770Z,95595.78
2023-04-10T01:48:11.706Z,95592.19
2023-04-10T01:50:41.154Z,95600.09
2023-04-10T01:53:09.213Z,95597.25
2023-04-10T01:55:38.823Z,95604.34
2023-04-10T01:58:09.278Z,95600.91
2023-04-10T02:00:43.635Z,95602.72
2023-04-10T02:03:12.711Z,95597.44
2023-04-10T02:06:09.202Z,95605.34
2023-04-10T02:09:26.758Z,95606.53
2023-04-10T02:12:09.872Z,95605.91
2023-04-10T02:14:41.838Z,95604.09
2023-04-10T02:17:11.392Z,95605.09
2023-04-10T02:19:40.313Z,95599.63
2023-04-10T02:22:08.816Z,95615.44
2023-04-10T02:24:36.533Z,95609.16
2023-04-10T02:27:05.014Z,95604.91
2023-04-10T02:29:32.767Z,95606.53
2023-04-10T02:32:04.074Z,95603.06
2023-04-10T02:34:31.600Z,95598.81
2023-04-10T02:36:59.600Z,95596.19
2023-04-10T02:39:30.086Z,95601.47
2023-04-10T02:41:58.116Z,95603.06
2023-04-10T02:44:26.475Z,95597.19
2023-04-10T02:46:54.257Z,95598.00
2023-04-10T02:49:21.930Z,95601.47
2023-04-10T02:51:49.164Z,95602.47
2023-04-10T02:54:16.259Z,95596.38
2023-04-10T02:56:43.886Z,95599.81
2023-04-10T02:59:11.255Z,95599.00
2023-04-10T03:01:39.467Z,95600.00
2023-04-10T03:04:07.090Z,95598.19
2023-04-10T03:06:38.970Z,95596.56
2023-04-10T03:09:06.714Z,95597.38
2023-04-10T03:11:34.522Z,95596.56
2023-04-10T03:14:02.362Z,95599.19
2023-04-10T03:16:29.794Z,95609.09
2023-04-10T03:18:57.593Z,95602.03
2023-04-10T03:21:24.939Z,95601.19
2023-04-10T03:23:52.559Z,95601.19
2023-04-10T03:26:19.918Z,95602.19
2023-04-10T03:28:47.353Z,95600.41
2023-04-10T03:31:14.634Z,95603.84
2023-04-10T03:33:44.435Z,95592.69
2023-04-10T03:36:12.152Z,95600.59
2023-04-10T03:38:39.687Z,95608.50
2023-04-10T03:41:09.572Z,95607.66
2023-04-10T03:43:37.057Z,95615.56
2023-04-10T03:46:06.151Z,95609.50
2023-04-10T03:48:35.579Z,95603.59
2023-04-10T03:51:02.816Z,95610.50
2023-04-10T03:53:30.700Z,95606.22
2023-04-10T03:55:57.983Z,95600.16
2023-04-10T03:58:25.865Z,95601.97
2023-04-10T04:00:55.479Z,95601.97
2023-04-10T04:03:33.744Z,95600.34
2023-04-10T04:06:01.202Z,95597.91
2023-04-10T04:08:38.582Z,95604.00
2023-04-10T04:11:23.575Z,95605.00
2023-04-10T04:14:16.996Z,95600.94
2023-04-10T04:17:04.656Z,95613.25
2023-04-10T04:19:50.774Z,95610.84
2023-04-10T04:22:24.830Z,95606.38
2023-04-10T04:25:10.987Z,95607.56
2023-04-10T04:27:54.298Z,95610.19
2023-04-10T04:30:34.090Z,95615.47
2023-04-10T04:33:18.038Z,95619.94
2023-04-10T04:36:01.192Z,95615.66
2023-04-10T04:38:43.584Z,95619.28
2023-04-10T04:41:27.073Z,95621.94
2023-04-10T04:44:26.433Z,95616.88
2023-04-10T04:47:10.885Z,95614.44
2023-04-10T04:49:56.403Z,95623.13
2023-04-10T04:52:42.114Z,95621.69
2023-04-10T04:55:24.722Z,95620.84
2023-04-10T04:58:03.130Z,95626.97
2023-04-10T05:00:57.219Z,95626.13
2023-04-10T05:03:43.387Z,95621.88
2023-04-10T05:06:36.114Z,95624.53
2023-04-10T05:09:36.754Z,95628.16
2023-04-10T05:12:13.665Z,95628.97
2023-04-10T05:14:53.911Z,95632.44
2023-04-10T05:17:44.568Z,95635.22
2023-04-10T05:20:30.495Z,95629.16
2023-04-10T05:23:21.687Z,95634.41
2023-04-10T05:26:01.212Z,95633.44
2023-04-10T05:28:51.363Z,95638.88
2023-04-10T05:31:24.397Z,95639.69
2023-04-10T05:34:10.759Z,95637.06
2023-04-10T05:36:54.537Z,95644.75
2023-04-10T05:39:49.343Z,95641.53
2023-04-10T05:42:34.085Z,95645.75
2023-04-10T05:45:33.308Z,95638.88
2023-04-10T05:48:17.385Z,95648.38
2023-04-10T05:51:16.208Z,95651.03
2023-04-10T05:54:05.968Z,95650.22
2023-04-10T05:56:49.974Z,95647.59
2023-04-10T05:59:36.093Z,95649.22
2023-04-10T06:02:26.009Z,95648.59
2023-04-10T06:04:53.961Z,95650.03
2023-04-10T06:07:21.973Z,95665.47
2023-04-10T06:09:49.719Z,95664.81
2023-04-10T06:12:18.555Z,95668.09
2023-04-10T06:14:48.869Z,95667.91
2023-04-10T06:17:21.842Z,95673.97
2023-04-10T06:19:49.484Z,95679.06
2023-04-10T06:22:18.125Z,95671.97
2023-04-10T06:24:47.764Z,95670.97
2023-04-10T06:27:17.547Z,95676.88
2023-04-10T06:29:48.295Z,95673.59
2023-04-10T06:32:19.858Z,95679.69
2023-04-10T06:34:48.183Z,95676.69
2023-04-10T06:37:16.240Z,95689.06
2023-04-10T06:39:43.961Z,95684.38
2023-04-10T06:42:11.981Z,95690.47
2023-04-10T06:44:54.024Z,95689.66
2023-04-10T06:47:21.723Z,95684.38
2023-04-10T06:49:49.458Z,95686.81
2023-04-10T06:52:18.016Z,95691.94
2023-04-10T06:54:45.787Z,95695.34
2023-04-10T06:57:13.326Z,95683.19
2023-04-10T06:59:40.789Z,95691.72
2023-04-10T07:02:08.945Z,95687.47
2023-04-10T07:04:36.815Z,95694.38
2023-04-10T07:07:05.388Z,95702.06
2023-04-10T07:09:33.435Z,95701.06
2023-04-10T07:12:00.879Z,95706.34
2023-04-10T07:14:28.479Z,95704.53
2023-04-10T07:16:55.704Z,95704.34
2023-04-10T07:19:23.259Z,95709.41
2023-04-10T07:21:50.590Z,95707.59
2023-04-10T07:24:18.717Z,95703.94
2023-04-10T07:26:46.732Z,95703.78
2023-04-10T07:29:14.435Z,95703.59
2023-04-10T07:31:42.105Z,95715.75
2023-04-10T07:34:11.953Z,95712.13
2023-04-10T07:36:39.606Z,95707.66
2023-04-10T07:39:07.464Z,95701.38
2023-04-10T07:41:35.371Z,95710.75
2023-04-10T07:44:03.959Z,95712.41
2023-04-10T07:46:31.467Z,95713.19
2023-04-10T07:48:58.930Z,95709.56
2023-04-10T07:51:27.691Z,95712.81
2023-04-10T07:53:55.648Z,95706.56
2023-04-10T07:56:23.215Z,95709.00
2023-04-10T07:58:52.479Z,95703.72
2023-04-10T08:01:21.576Z,95706.16
2023-04-10T08:03:49.192Z,95706.78
2023-04-10T08:06:17.462Z,95708.44
2023-04-10T08:08:44.478Z,95712.69
2023-04-10T08:11:29.657Z,95706.41
2023-04-10T08:14:01.589Z,95709.88
2023-04-10T08:16:31.238Z,95708.88
2023-04-10T08:19:00.250Z,95711.31
2023-04-10T08:21:30.008Z,95709.31
2023-04-10T08:24:00.449Z,95713.53
2023-04-10T08:26:29.213Z,95711.75
2023-04-10T08:28:59.811Z,95715.00
2023-04-10T08:31:28.855Z,95714.81
2023-04-10T08:33:57.291Z,95707.91
2023-04-10T08:36:25.006Z,95703.06
2023-04-10T08:38:52.276Z,95707.34
2023-04-10T08:41:20.053Z,95701.22
2023-04-10T08:43:47.498Z,95704.91
2023-04-10T08:46:15.174Z,95698.00
2023-04-10T08:48:50.252Z,95696.34
2023-04-10T08:51:26.240Z,95696.72
2023-04-10T08:54:10.533Z,95697.72
2023-04-10T08:56:40.515Z,95690.84
2023-04-10T08:59:09.033Z,95692.03
2023-04-10T09:01:36.562Z,95686.16
2023-04-10T09:04:03.918Z,95700.31
2023-04-10T09:06:31.443Z,95696.88
2023-04-10T09:11:53.156Z,95690.34
2023-04-10T09:14:25.925Z,95692.19
2023-04-10T09:16:54.861Z,95689.56
2023-04-10T09:19:34.217Z,95691.34
2023-04-10T09:22:02.228Z,95688.72
2023-04-10T09:24:29.237Z,95687.72
2023-04-10T09:26:56.758Z,95690.97
2023-04-10T09:29:25.968Z,95690.97
2023-04-10T09:31:53.414Z,95684.88
2023-04-10T09:34:23.403Z,95688.34
2023-04-10T09:36:57.832Z,95681.25
2023-04-10T09:39:43.301Z,95678.63
2023-04-10T09:42:14.901Z,95665.84
2023-04-10T09:44:43.902Z,95669.28
2023-04-10T09:47:13.964Z,95667.47
2023-04-10T09:50:00.911Z,95662.19
2023-04-10T09:52:31.656Z,95663.00
2023-04-10T09:55:08.739Z,95654.09
2023-04-10T09:57:36.794Z,95650.25
2023-04-10T10:00:08.282Z,95649.06
2023-04-10T10:02:42.497Z,95650.69
2023-04-10T10:05:11.446Z,95647.66
2023-04-10T10:07:40.143Z,95641.38
2023-04-10T10:10:09.279Z,95642.63
2023-04-10T10:13:01.083Z,95638.16
2023-04-10T10:15:37.278Z,95635.16
2023-04-10T10:18:26.696Z,95631.31
2023-04-10T10:20:54.361Z,95631.13
2023-04-10T10:23:22.542Z,95621.22
2023-04-10T10:25:51.479Z,95618.16
2023-04-10T10:28:20.929Z,95619.59
2023-04-10T10:30:51.475Z,95615.16
2023-04-10T10:33:19.502Z,95610.47
2023-04-10T10:35:47.678Z,95610.31
2023-04-10T10:38:16.793Z,95607.47
2023-04-10T10:40:52.148Z,95610.91
2023-04-10T10:43:37.610Z,95611.31
2023-04-10T10:46:14.841Z,95605.19
2023-04-10T10:49:01.274Z,95606.41
2023-04-10T10:51:51.094Z,95603.78
2023-04-10T10:54:40.366Z,95602.34
2023-04-10T11:15:28.971Z,95580.78
2023-04-10T11:17:56.370Z,95577.31
2023-04-10T11:20:27.560Z,95575.50
2023-04-10T11:23:13.692Z,95570.22
2023-04-10T11:25:55.866Z,95567.78
2023-04-10T11:28:43.406Z,95557.97
2023-04-10T11:31:24.232Z,95561.66
2023-04-10T11:34:06.221Z,95557.78
2023-04-10T11:36:36.069Z,95554.72
2023-04-10T11:39:21.950Z,95548.03
2023-04-10T11:41:53.929Z,95548.63
2023-04-10T11:44:35.421Z,95546.41
2023-04-10T11:47:02.815Z,95546.59
2023-04-10T11:49:34.641Z,95540.69
2023-04-10T11:52:02.649Z,95541.09
2023-04-10T11:54:30.275Z,95535.00
2023-04-10T11:57:00.125Z,95535.22
2023-04-10T11:59:28.320Z,95535.22
2023-04-10T12:02:12.853Z,95531.97
2023-04-10T12:04:41.156Z,95526.69
2023-04-10T12:07:09.034Z,95521.59
2023-04-10T12:09:36.665Z,95520.56
2023-04-10T12:12:07.177Z,95517.13
2023-04-10T12:14:37.298Z,95515.28
2023-04-10T12:17:08.205Z,95513.69
2023-04-10T12:19:37.494Z,95511.84
2023-04-10T12:22:05.236Z,95505.56
2023-04-10T12:24:51.991Z,95506.56
2023-04-10T12:27:23.693Z,95503.94
2023-04-10T12:29:54.228Z,95503.94
2023-04-10T12:32:23.688Z,95496.81
2023-04-10T12:34:57.669Z,95493.38
2023-04-10T12:37:48.948Z,95495.00
2023-04-10T12:40:16.321Z,95494.00
2023-04-10T12:42:43.918Z,95492.16
2023-04-10T12:45:13.978Z,95483.25
2023-04-10T12:47:52.538Z,95486.69
2023-04-10T12:50:24.311Z,95481.41
2023-04-10T12:53:11.808Z,95471.06
2023-04-10T12:55:39.393Z,95476.97
2023-04-10T13:23:42.642Z,95453.53
2023-04-10T13:26:09.783Z,95444.78
2023-04-10T13:28:36.630Z,95440.31
2023-04-10T13:31:03.616Z,95441.13
2023-04-10T13:33:30.693Z,95443.75
2023-04-10T13:36:05.579Z,95439.50
2023-04-10T13:38:33.000Z,95436.25
2023-04-10T13:40:59.962Z,95425.28
2023-04-10T13:59:04.705Z,95411.00
2023-04-10T14:01:32.081Z,95412.47
2023-04-10T14:03:58.965Z,95410.22
2023-04-10T14:06:27.109Z,95409.84
2023-04-10T14:08:54.379Z,95408.66
2023-04-10T14:11:21.894Z,95404.59
2023-04-10T14:13:49.377Z,95400.16
2023-04-10T14:16:16.322Z,95389.19
2023-04-10T14:18:43.246Z,95392.06
2023-04-10T14:21:10.657Z,95387.56
2023-04-10T14:23:37.543Z,95377.78
2023-04-10T14:26:07.503Z,95379.22
2023-04-10T14:28:35.056Z,95372.50
2023-04-10T14:31:02.154Z,95371.25
2023-04-10T14:38:20.241Z,95358.88
2023-04-10T14:40:51.268Z,95360.50
